Time;durP1;ratioP1;P1;durP2;ratioP2;P2;SDS_P1;SDS_P2;PMS_P1;PMS_P2;Temp;Humidity;BMP_temperature;BMP_pressure;BME280_temperature;BME280_humidity;BME280_pressure;Samples;Min_cycle;Max_cycle;Signal;HPM_P1;HPM_P2
2021/06/30 00:01:19;;;;;;;;;5.75;5.75;;;;;;;;3569387;39;111946;-83
2021/06/30 00:03:45;;;;;;;;;5.00;4.50;;;;;;;;3571623;39;113325;-83
2021/06/30 00:06:12;;;;;;;;;6.00;6.00;;;;;;;;3569884;39;114255;-84
2021/06/30 00:08:39;;;;;;;;;6.00;6.00;;;;;;;;3569970;39;112215;-83
2021/06/30 00:11:07;;;;;;;;;5.50;5.00;;;;;;;;3569525;39;113655;-83
2021/06/30 00:13:34;;;;;;;;;5.00;5.00;;;;;;;;3568347;39;113883;-84
2021/06/30 00:16:00;;;;;;;;;7.00;6.00;;;;;;;;3568677;39;112012;-84
2021/06/30 00:18:28;;;;;;;;;5.75;5.75;;;;;;;;3567624;39;112244;-84
2021/06/30 00:20:55;;;;;;;;;5.75;5.75;;;;;;;;3571288;39;111770;-84
2021/06/30 00:23:21;;;;;;;;;4.75;4.75;;;;;;;;3570468;39;113213;-83
2021/06/30 00:25:48;;;;;;;;;6.75;5.00;;;;;;;;3569033;39;114228;-82
2021/06/30 00:28:16;;;;;;;;;6.00;5.25;;;;;;;;3570296;39;111843;-82
2021/06/30 00:30:43;;;;;;;;;5.25;5.25;;;;;;;;3569546;39;113223;-84
2021/06/30 00:33:09;;;;;;;;;5.00;5.00;;;;;;;;3568656;39;114464;-83
2021/06/30 00:35:36;;;;;;;;;6.50;6.00;;;;;;;;3569945;39;112010;-83
2021/06/30 00:38:02;;;;;;;;;6.00;6.00;;;;;;;;3568301;39;112425;-80
2021/06/30 00:40:29;;;;;;;;;6.00;4.75;;;;;;;;3570685;39;114118;-81
2021/06/30 00:42:56;;;;;;;;;4.00;4.00;;;;;;;;3573123;39;113694;-82
2021/06/30 00:45:23;;;;;;;;;5.00;5.00;;;;;;;;3572422;39;114716;-82
2021/06/30 00:47:50;;;;;;;;;7.75;6.00;;;;;;;;3573908;39;111953;-82
2021/06/30 00:50:17;;;;;;;;;4.00;4.00;;;;;;;;3573616;39;113260;-82
2021/06/30 00:52:44;;;;;;;;;3.75;3.00;;;;;;;;3567870;39;112962;-80
2021/06/30 00:55:11;;;;;;;;;6.00;4.00;;;;;;;;3569768;39;112037;-80
2021/06/30 00:57:38;;;;;;;;;4.00;4.00;;;;;;;;3569678;39;113316;-80
2021/06/30 01:00:05;;;;;;;;;4.33;4.00;;;;;;;;3568396;39;113846;-81
2021/06/30 01:02:33;;;;;;;;;5.25;4.00;;;;;;;;3573535;39;111768;-81
2021/06/30 01:05:00;;;;;;;;;3.00;3.00;;;;;;;;3568581;39;113908;-79
2021/06/30 01:07:27;;;;;;;;;7.00;5.00;;;;;;;;3570600;39;111776;-79
2021/06/30 01:09:53;;;;;;;;;4.00;4.00;;;;;;;;3568352;39;113270;-80
2021/06/30 01:12:20;;;;;;;;;5.00;5.00;;;;;;;;3564949;39;113081;-80
2021/06/30 01:14:46;;;;;;;;;4.00;4.00;;;;;;;;3570229;39;112148;-80
2021/06/30 01:17:13;;;;;;;;;5.00;4.00;;;;;;;;3570816;39;113207;-79
2021/06/30 01:19:41;;;;;;;;;3.33;3.33;;;;;;;;3570291;39;113586;-80
2021/06/30 01:22:08;;;;;;;;;4.00;3.00;;;;;;;;3569665;39;112040;-80
2021/06/30 01:24:36;;;;;;;;;5.00;3.00;;;;;;;;3571156;39;113445;-79
2021/06/30 01:27:03;;;;;;;;;4.33;3.00;;;;;;;;3570040;39;112138;-81
2021/06/30 01:29:30;;;;;;;;;3.33;3.00;;;;;;;;3568822;39;113773;-80
2021/06/30 01:31:56;;;;;;;;;3.00;3.00;;;;;;;;3570071;39;114668;-80
2021/06/30 01:34:23;;;;;;;;;3.75;3.75;;;;;;;;3568787;39;111870;-80
2021/06/30 01:36:50;;;;;;;;;3.25;3.25;;;;;;;;3568511;39;113307;-80
2021/06/30 01:39:17;;;;;;;;;3.75;3.00;;;;;;;;3569539;39;113836;-79
2021/06/30 01:41:45;;;;;;;;;5.25;3.00;;;;;;;;3569006;39;111848;-80
2021/06/30 01:44:12;;;;;;;;;4.00;4.00;;;;;;;;3569437;39;113207;-80
2021/06/30 01:46:39;;;;;;;;;4.50;4.00;;;;;;;;3572674;39;114097;-80
2021/06/30 01:49:06;;;;;;;;;3.25;3.25;;;;;;;;3570056;39;113285;-81
2021/06/30 01:51:33;;;;;;;;;4.50;4.50;;;;;;;;3568828;39;114016;-81
2021/06/30 01:54:01;;;;;;;;;6.50;3.50;;;;;;;;3570157;39;111849;-80
2021/06/30 01:56:28;;;;;;;;;2.00;2.00;;;;;;;;3568872;39;113384;-80
2021/06/30 01:59:00;;;;;;;;;3.50;3.00;;;;;;;;3569901;39;113932;-79
2021/06/30 02:01:27;;;;;;;;;2.00;2.00;;;;;;;;3570594;39;112294;-80
2021/06/30 02:03:55;;;;;;;;;4.25;2.25;;;;;;;;3568914;39;113288;-81
2021/06/30 18:33:18;;;;;;;;;1.00;1.00;;;;;;;;3527129;39;1418759;-73
2021/06/30 18:35:47;;;;;;;;;1.33;0.33;;;;;;;;3553417;39;113484;-75
2021/06/30 18:38:13;;;;;;;;;2.00;2.00;;;;;;;;3559652;39;112149;-75
2021/06/30 18:40:40;;;;;;;;;0.33;0.33;;;;;;;;3561181;39;113168;-76
2021/06/30 18:43:07;;;;;;;;;1.67;1.33;;;;;;;;3560795;39;113898;-73
2021/06/30 18:45:33;;;;;;;;;1.67;1.67;;;;;;;;3561298;39;112027;-73
2021/06/30 18:48:00;;;;;;;;;2.00;1.00;;;;;;;;3561030;39;113280;-73
2021/06/30 18:50:28;;;;;;;;;2.00;2.00;;;;;;;;3560334;39;113991;-72
2021/06/30 18:52:54;;;;;;;;;2.00;1.00;;;;;;;;3563716;39;112247;-73
2021/06/30 18:55:21;;;;;;;;;3.00;1.00;;;;;;;;3560615;39;113849;-81
2021/06/30 18:57:51;;;;;;;;;1.33;1.33;;;;;;;;3559286;39;113390;-78
2021/06/30 19:00:18;;;;;;;;;8.00;5.00;;;;;;;;3560486;39;113205;-76
2021/06/30 19:02:45;;;;;;;;;4.33;4.00;;;;;;;;3559964;39;114217;-79
2021/06/30 19:05:13;;;;;;;;;3.00;3.00;;;;;;;;3560158;39;114285;-81
2021/06/30 19:07:43;;;;;;;;;3.67;2.67;;;;;;;;3560322;39;113555;-86
2021/06/30 19:10:10;;;;;;;;;3.33;2.00;;;;;;;;3559990;39;113949;-80
2021/06/30 19:12:37;;;;;;;;;2.67;2.67;;;;;;;;3560306;39;111952;-81
2021/06/30 19:15:06;;;;;;;;;1.67;1.67;;;;;;;;3562906;39;113533;-84
2021/06/30 19:17:33;;;;;;;;;2.00;1.00;;;;;;;;3559764;39;112064;-86
2021/06/30 19:19:59;;;;;;;;;2.33;1.00;;;;;;;;3560551;39;113560;-82
2021/06/30 19:22:26;;;;;;;;;2.00;1.00;;;;;;;;3560051;39;113859;-83
2021/06/30 19:24:54;;;;;;;;;1.00;1.00;;;;;;;;3560427;39;111894;-83
2021/06/30 19:27:21;;;;;;;;;1.67;1.67;;;;;;;;3556164;39;113029;-82
2021/06/30 19:29:47;;;;;;;;;1.33;1.33;;;;;;;;3560615;39;113819;-82
2021/06/30 19:32:14;;;;;;;;;3.67;2.33;;;;;;;;3560048;39;111886;-85
2021/06/30 19:34:41;;;;;;;;;2.00;1.00;;;;;;;;3557256;39;112442;-81
2021/06/30 19:37:08;;;;;;;;;1.67;1.33;;;;;;;;3563330;39;114223;-83
2021/06/30 19:39:35;;;;;;;;;5.33;3.33;;;;;;;;3561301;39;113481;-83
2021/06/30 19:42:04;;;;;;;;;1.00;1.00;;;;;;;;3557473;39;113081;-79
2021/06/30 19:44:32;;;;;;;;;4.33;1.67;;;;;;;;3554596;39;112283;-81
2021/06/30 19:47:02;;;;;;;;;5.00;2.00;;;;;;;;3554221;39;113277;-80
2021/06/30 19:49:28;;;;;;;;;2.67;1.67;;;;;;;;3552268;39;113886;-80
2021/06/30 19:52:00;;;;;;;;;2.00;2.00;;;;;;;;3554141;39;113740;-79
2021/06/30 19:54:27;;;;;;;;;1.00;1.00;;;;;;;;3553609;39;113291;-77
2021/06/30 19:56:54;;;;;;;;;5.00;4.00;;;;;;;;3547309;39;112846;-78
2021/06/30 19:59:22;;;;;;;;;5.00;2.33;;;;;;;;3556906;39;111860;-72
2021/06/30 20:01:49;;;;;;;;;1.00;1.00;;;;;;;;3554128;39;113887;-76
2021/06/30 20:04:16;;;;;;;;;1.67;1.33;;;;;;;;3554341;39;111867;-79
2021/06/30 20:06:43;;;;;;;;;2.50;2.00;;;;;;;;3549486;39;113935;-82
2021/06/30 20:09:10;;;;;;;;;2.00;1.00;;;;;;;;3550244;39;113167;-81
2021/06/30 20:11:37;;;;;;;;;3.00;2.33;;;;;;;;3554256;39;111823;-77
2021/06/30 20:14:04;;;;;;;;;4.00;3.00;;;;;;;;3554327;39;113164;-76
2021/06/30 20:16:33;;;;;;;;;3.67;1.33;;;;;;;;3553911;39;114608;-79
2021/06/30 20:19:00;;;;;;;;;2.33;2.00;;;;;;;;3553623;39;111860;-80
2021/06/30 20:21:27;;;;;;;;;3.00;3.00;;;;;;;;3556412;39;113438;-68
2021/06/30 20:23:54;;;;;;;;;2.33;2.00;;;;;;;;3554008;39;112355;-68
2021/06/30 20:26:21;;;;;;;;;3.00;2.67;;;;;;;;3553051;39;113256;-67
2021/06/30 20:28:48;;;;;;;;;3.33;2.33;;;;;;;;3553474;39;113926;-68
2021/06/30 20:31:14;;;;;;;;;4.67;3.00;;;;;;;;3552157;39;112226;-68
2021/06/30 20:33:42;;;;;;;;;2.67;2.00;;;;;;;;3553468;39;113473;-67
2021/06/30 20:36:10;;;;;;;;;4.00;2.67;;;;;;;;3550300;39;113213;-75
2021/06/30 20:38:36;;;;;;;;;4.00;3.00;;;;;;;;3553869;39;112443;-78
2021/06/30 20:41:03;;;;;;;;;3.00;2.00;;;;;;;;3553573;39;113214;-77
2021/06/30 20:43:31;;;;;;;;;3.67;3.00;;;;;;;;3556109;39;111972;-76
2021/06/30 20:45:58;;;;;;;;;1.00;1.00;;;;;;;;3554010;39;113323;-77
2021/06/30 20:48:25;;;;;;;;;3.00;3.00;;;;;;;;3553616;39;113984;-77
2021/06/30 20:50:53;;;;;;;;;2.67;2.67;;;;;;;;3553757;39;111799;-77
2021/06/30 20:53:19;;;;;;;;;3.00;3.00;;;;;;;;3554609;39;113419;-78
2021/06/30 20:55:46;;;;;;;;;4.00;3.33;;;;;;;;3552362;39;114100;-78
2021/06/30 20:58:12;;;;;;;;;3.00;3.00;;;;;;;;3549736;39;112628;-77
2021/06/30 21:00:39;;;;;;;;;10.25;4.75;;;;;;;;3553316;39;113210;-78
2021/06/30 21:03:05;;;;;;;;;4.25;4.00;;;;;;;;3556269;39;114098;-77
2021/06/30 21:05:36;;;;;;;;;5.00;4.00;;;;;;;;3554040;39;113640;-80
2021/06/30 21:08:05;;;;;;;;;5.00;3.00;;;;;;;;3553702;39;114041;-78
2021/06/30 21:10:32;;;;;;;;;4.00;3.00;;;;;;;;3553708;39;112271;-79
2021/06/30 21:12:58;;;;;;;;;5.00;4.00;;;;;;;;3554091;39;113239;-81
2021/06/30 21:15:25;;;;;;;;;7.67;6.00;;;;;;;;3553574;39;114075;-80
2021/06/30 21:17:52;;;;;;;;;7.00;5.00;;;;;;;;3554072;39;112122;-80
2021/06/30 21:20:18;;;;;;;;;10.00;7.00;;;;;;;;3553789;39;113319;-79
2021/06/30 21:22:45;;;;;;;;;4.75;3.75;;;;;;;;3553433;39;114330;-81
2021/06/30 21:25:14;;;;;;;;;5.50;3.50;;;;;;;;3556495;39;112415;-80
2021/06/30 21:27:40;;;;;;;;;8.50;5.00;;;;;;;;3551708;39;112983;-80
2021/06/30 21:30:08;;;;;;;;;4.00;4.00;;;;;;;;3553923;39;112010;-81
2021/06/30 21:32:34;;;;;;;;;3.50;3.50;;;;;;;;3553779;39;113164;-81
2021/06/30 21:35:01;;;;;;;;;6.00;3.00;;;;;;;;3553729;39;114012;-81
2021/06/30 21:37:27;;;;;;;;;5.00;3.25;;;;;;;;3550086;39;112278;-80
2021/06/30 21:39:56;;;;;;;;;6.75;4.75;;;;;;;;3553711;39;113355;-81
2021/06/30 21:42:24;;;;;;;;;3.00;3.00;;;;;;;;3553392;39;113823;-81
2021/06/30 21:44:51;;;;;;;;;4.00;4.00;;;;;;;;3553478;39;111820;-83
2021/06/30 21:47:17;;;;;;;;;3.00;3.00;;;;;;;;3553685;39;113255;-83
2021/06/30 21:49:44;;;;;;;;;4.50;2.00;;;;;;;;3550936;39;111965;-82
2021/06/30 21:52:11;;;;;;;;;3.25;3.00;;;;;;;;3551612;39;112249;-82
2021/06/30 21:54:37;;;;;;;;;6.00;4.00;;;;;;;;3551528;39;113959;-83
2021/06/30 21:57:04;;;;;;;;;3.00;3.00;;;;;;;;3553847;39;111961;-86
2021/06/30 21:59:32;;;;;;;;;1.75;1.50;;;;;;;;3547706;39;112693;-83
2021/06/30 22:02:01;;;;;;;;;4.50;3.00;;;;;;;;3550976;39;112947;-84
2021/06/30 22:04:28;;;;;;;;;4.25;3.00;;;;;;;;3553743;39;112027;-85
2021/06/30 22:06:54;;;;;;;;;2.00;2.00;;;;;;;;3553456;39;114007;-85
2021/06/30 22:09:21;;;;;;;;;2.75;2.75;;;;;;;;3555856;39;113789;-84
2021/06/30 22:11:48;;;;;;;;;3.75;2.75;;;;;;;;3550288;39;112570;-84
2021/06/30 22:14:14;;;;;;;;;3.25;3.00;;;;;;;;3549121;39;114081;-83
2021/06/30 22:16:42;;;;;;;;;3.00;2.00;;;;;;;;3552016;39;112486;-82
2021/06/30 22:19:09;;;;;;;;;2.00;2.00;;;;;;;;3547973;39;113992;-78
2021/06/30 22:21:36;;;;;;;;;2.25;2.25;;;;;;;;3552099;39;114392;-81
2021/06/30 22:24:02;;;;;;;;;2.75;2.50;;;;;;;;3552059;39;112941;-82
2021/06/30 22:26:29;;;;;;;;;3.50;2.00;;;;;;;;3551110;39;113392;-78
2021/06/30 22:28:55;;;;;;;;;3.75;3.75;;;;;;;;3552941;39;112731;-78
2021/06/30 22:31:22;;;;;;;;;3.00;3.00;;;;;;;;3556496;39;111877;-73
2021/06/30 22:33:51;;;;;;;;;4.00;3.00;;;;;;;;3552948;39;114031;-74
2021/06/30 22:36:17;;;;;;;;;2.00;2.00;;;;;;;;3553528;39;111846;-74
2021/06/30 22:38:44;;;;;;;;;2.50;1.75;;;;;;;;3553288;39;113260;-74
2021/06/30 22:41:11;;;;;;;;;4.00;3.00;;;;;;;;3553306;39;113968;-74
2021/06/30 22:43:37;;;;;;;;;2.00;2.00;;;;;;;;3553616;39;112164;-75
2021/06/30 22:46:04;;;;;;;;;4.75;2.00;;;;;;;;3553476;39;113270;-77
2021/06/30 22:48:30;;;;;;;;;3.25;3.00;;;;;;;;3553026;39;114223;-75
2021/06/30 22:50:58;;;;;;;;;5.75;2.00;;;;;;;;3556016;39;112316;-75
2021/06/30 22:53:25;;;;;;;;;2.75;2.00;;;;;;;;3552936;39;114325;-75
2021/06/30 22:55:52;;;;;;;;;3.75;2.00;;;;;;;;3553500;39;112426;-75
2021/06/30 22:58:18;;;;;;;;;4.00;2.75;;;;;;;;3553432;39;113738;-76
2021/06/30 23:00:45;;;;;;;;;2.75;2.75;;;;;;;;3552639;39;113810;-74
2021/06/30 23:03:12;;;;;;;;;1.75;1.75;;;;;;;;3553349;39;111906;-75
2021/06/30 23:05:38;;;;;;;;;6.00;4.25;;;;;;;;3553159;39;113066;-75
2021/06/30 23:08:09;;;;;;;;;2.50;2.50;;;;;;;;3552840;39;113876;-75
2021/06/30 23:10:36;;;;;;;;;2.00;1.00;;;;;;;;3553065;39;112466;-75
2021/06/30 23:13:03;;;;;;;;;3.00;3.00;;;;;;;;3555323;39;113425;-74
2021/06/30 23:15:29;;;;;;;;;4.00;4.00;;;;;;;;3553050;39;112141;-74
2021/06/30 23:17:56;;;;;;;;;2.25;2.00;;;;;;;;3553325;39;113246;-73
2021/06/30 23:20:22;;;;;;;;;4.25;3.00;;;;;;;;3554132;39;113941;-74
2021/06/30 23:22:49;;;;;;;;;4.75;3.75;;;;;;;;3554656;39;112312;-73
2021/06/30 23:25:17;;;;;;;;;3.00;3.00;;;;;;;;3554496;39;113344;-73
2021/06/30 23:27:44;;;;;;;;;4.25;3.00;;;;;;;;3553986;39;113907;-73
2021/06/30 23:30:11;;;;;;;;;5.00;3.75;;;;;;;;3554705;39;113102;-74
2021/06/30 23:32:37;;;;;;;;;5.25;3.00;;;;;;;;3554382;39;113628;-73
2021/06/30 23:35:05;;;;;;;;;2.25;2.00;;;;;;;;3553160;39;113580;-73
2021/06/30 23:37:31;;;;;;;;;2.25;2.25;;;;;;;;3554444;39;113360;-73
2021/06/30 23:39:58;;;;;;;;;3.00;3.00;;;;;;;;3554102;39;113969;-73
2021/06/30 23:42:26;;;;;;;;;3.00;3.00;;;;;;;;3554542;39;111801;-74
2021/06/30 23:44:52;;;;;;;;;6.25;4.75;;;;;;;;3554591;39;113293;-74
2021/06/30 23:47:19;;;;;;;;;2.00;2.00;;;;;;;;3553929;39;113648;-74
2021/06/30 23:49:45;;;;;;;;;3.75;2.00;;;;;;;;3554276;39;112010;-74
2021/06/30 23:52:12;;;;;;;;;3.50;3.00;;;;;;;;3554366;39;113371;-74
2021/06/30 23:54:39;;;;;;;;;6.00;4.00;;;;;;;;3553814;39;115045;-74
2021/06/30 23:57:05;;;;;;;;;3.00;2.00;;;;;;;;3557146;39;111831;-74
2021/06/30 23:59:33;;;;;;;;;3.75;2.00;;;;;;;;3553772;39;114703;-74
